Scottish Airport Reports

Civil airfields updated at H+20 and H+50
RAF airfields updated at H+50 only

EGPD - Aberdeen
Distance from station: NNE 19mi, 31km
Updated: 11/07/2020 23:50
Clear
Clear
 Wind from W
Wind: W 9 mph , 15 km/h
Temperature: 13°C
Dew Point: 7°C
Humidity: 67%
Barometer: 1024 hPa
Clouds: Clear
Visibility: 6 miles , 10 km
2020/07/11 22:50 EGPD 112250Z AUTO 28008KT 9999 NCD 13/07 Q1024 NOSIG
EGPN - Dundee
Distance from station: SW 41mi, 66km
Updated: 11/07/2020 15:50
NOT Current
Partly cloudy
Partly cloudy
 Wind from WSW
Wind: WSW 17 mph , 28 km/h
Temperature: 19°C
Dew Point: 11°C
Humidity: 60%
Barometer: 1023 hPa
Clouds: Partly cloudy
Visibility: 6 miles , 10 km
Cloud details: Partly cloudy 4500 ft
2020/07/11 14:50 EGPN 111450Z 25015KT 9999 SCT045 19/11 Q1023
 
EGQS - RAF Lossiemouth
Distance from station: NNW 63mi, 102km
Updated: 11/07/2020 23:50
Mostly cloudy
Mostly cloudy
 Wind from WSW
Wind: WSW 15 mph , 24 km/h
Temperature: 12°C
Dew Point: 8°C
Humidity: 77%
Barometer: 1024 hPa
Clouds: Mostly cloudy
Visibility: 6 miles , 10 km
Cloud details: Mostly cloudy 3200 ft
2020/07/11 22:50 EGQS 112250Z 24013KT 9999 BKN032 12/08 Q1024 RMK BLU
EGPE - Inverness
Distance from station: WNW 73mi, 117km
Updated: 11/07/2020 23:50
Mostly cloudy
Mostly cloudy
 Wind from SW
Wind: SW 13 mph , 20 km/h
Temperature: 12°C
Dew Point: 8°C
Humidity: 77%
Barometer: 1024 hPa
Clouds: Mostly cloudy
Visibility: 6 miles , 10 km
Cloud details: Mostly cloudy 3400 ft
2020/07/11 22:50 EGPE 112250Z AUTO 23011KT 9999 BKN034/// 12/08 Q1024
 
EGPH - Edinburgh
Distance from station: SSW 77mi, 125km
Updated: 11/07/2020 23:50
Partly cloudy
Partly cloudy
 Wind from WSW
Wind: WSW 8 mph , 13 km/h
Temperature: 10°C
Wind Chill: 8°C
Dew Point: 8°C
Humidity: 88%
Barometer: 1026 hPa
Clouds: Partly cloudy
Visibility: 6 miles , 10 km
Cloud details: Partly cloudy 3600 ft
2020/07/11 22:50 EGPH 112250Z 25007KT 9999 SCT036 10/08 Q1026
EGPC - Wick
Distance from station: NNW 107mi, 172km
Updated: 11/07/2020 23:50
Overcast
Overcast
 Wind from WSW
Wind: WSW 8 mph , 13 km/h
Temperature: 12°C
Dew Point: 8°C
Humidity: 77%
Barometer: 1022 hPa
Clouds: Overcast
Visibility: 6 miles , 10 km
Cloud details: Overcast 2200 ft
2020/07/11 22:50 EGPC 112250Z AUTO 25007KT 9999 OVC022/// 12/08 Q1022
 
EGPF - Glasgow
Distance from station: SW 107mi, 172km
Updated: 11/07/2020 23:50
Overcast
Overcast
 Wind from SW
Wind: SW 6 mph , 9 km/h
Temperature: 11°C
Dew Point: 7°C
Humidity: 77%
Barometer: 1027 hPa
Clouds: Overcast
Visibility: 6 miles , 10 km
Cloud details: Overcast 4200 ft
2020/07/11 22:50 EGPF 112250Z AUTO 23005KT 9999 OVC042 11/07 Q1027
EGPK - Prestwick
Distance from station: SW 130mi, 209km
Updated: 11/07/2020 23:50
Mostly cloudy
Mostly cloudy
 Wind from calm
Wind: Calm
Temperature: 13°C
Dew Point: 9°C
Humidity: 77%
Barometer: 1028 hPa
Clouds: Mostly cloudy
Visibility: 6 miles , 10 km
Cloud details: Few Clouds 3300 ft
Mostly cloudy 4300 ft
2020/07/11 22:50 EGPK 112250Z 00000KT 9999 FEW033 BKN043 13/09 Q1028
 
EGPA - Kirkwall, Orkney
Distance from station: N 140mi, 225km
Updated: 11/07/2020 23:50
Mostly cloudy
Mostly cloudy
 Wind from W
Wind: W 22 mph , 35 km/h
Temperature: 12°C
Dew Point: 10°C
Humidity: 88%
Barometer: 1021 hPa
Clouds: Mostly cloudy
Visibility: 6 miles , 10 km
Cloud details: Partly cloudy 1200 ft
Mostly cloudy 1700 ft
2020/07/11 22:50 EGPA 112250Z AUTO 27019KT 9999 SCT012/// BKN017/// 12/10 Q1021
EGPO - Stornoway, Outer Hebrides
Distance from station: WNW 169mi, 273km
Updated: 11/07/2020 23:50
Overcast
Overcast
 Wind from SW
Wind: SW 13 mph , 20 km/h
Temperature: 12°C
Dew Point: 9°C
Humidity: 82%
Barometer: 1024 hPa
Clouds: Overcast
Visibility: 6 miles , 10 km
Cloud details: Overcast 1900 ft
2020/07/11 22:50 EGPO 112250Z AUTO 23011KT 9999 OVC019/// 12/09 Q1024
 
EGPI - Islay, Inner Hebrides
Distance from station: WSW 172mi, 276km
Updated: 11/07/2020 23:50
Overcast
Overcast
 Wind from SE
Wind: SE 3 mph , 6 km/h
Temperature: 10°C
Dew Point: 9°C
Humidity: 94%
Barometer: 1027 hPa
Clouds: Overcast
Visibility: 6 miles , 10 km
Cloud details: Overcast 4400 ft
2020/07/11 22:50 EGPI 112250Z AUTO 13003KT 9999 OVC044/// 10/09 Q1027
EGPU - Tiree, Inner Hebrides
Distance from station: W 172mi, 276km
Updated: 11/07/2020 23:50
Overcast
Overcast
 Wind from WSW
Wind: WSW 8 mph , 13 km/h
Temperature: 12°C
Dew Point: 7°C
Humidity: 72%
Barometer: 1026 hPa
Clouds: Overcast
Visibility: 6 miles , 10 km
Cloud details: Overcast 3600 ft
2020/07/11 22:50 EGPU 112250Z AUTO 24007KT 9999 OVC036/// 12/07 Q1026
 
EGPB - Sumburgh, Shetland
Distance from station: NNE 208mi, 332km
Updated: 11/07/2020 23:50
Overcast
Overcast
 Wind from W
Wind: W 20 mph , 31 km/h
Temperature: 11°C
Dew Point: 11°C
Humidity: 100%
Barometer: 1018 hPa
Clouds: Overcast
Visibility: 6 miles , 10 km
Cloud details: Overcast 300 ft
2020/07/11 22:50 EGPB 112250Z AUTO 26017KT 9999 OVC003/// 11/11 Q1018 RERA
-->